Time;durP1;ratioP1;P1;durP2;ratioP2;P2;SDS_P1;SDS_P2;PMS_P1;PMS_P2;Temp;Humidity;BMP_temperature;BMP_pressure;BME280_temperature;BME280_humidity;BME280_pressure;Samples;Min_cycle;Max_cycle;Signal;HPM_P1;HPM_P2
2023/12/28 00:00:49;;;;;;;1.13;0.90;;;7.20;99.90;;;6.56;55.81;97308.88;4969228;28;20025;-36
2023/12/28 00:03:15;;;;;;;1.85;1.10;;;7.20;99.90;;;6.53;56.60;97302.84;4968528;28;20041;-36
2023/12/28 00:05:41;;;;;;;1.55;1.10;;;7.10;99.90;;;6.47;56.88;97303.84;4974511;28;20030;-36
2023/12/28 00:08:06;;;;;;;1.60;0.75;;;7.10;99.90;;;6.43;57.26;97299.56;4962733;28;20732;-36
2023/12/28 00:10:32;;;;;;;1.20;0.90;;;7.00;99.90;;;6.41;56.25;97309.22;4969062;28;20121;-36
2023/12/28 00:12:58;;;;;;;1.98;0.82;;;7.00;99.90;;;6.44;56.16;97322.22;4971690;28;20034;-36
2023/12/28 00:15:23;;;;;;;1.95;1.10;;;7.00;99.90;;;6.43;55.57;97318.75;4969718;28;20034;-36
2023/12/28 00:17:49;;;;;;;1.13;0.80;;;7.10;99.90;;;6.42;55.77;97318.78;4967919;28;20039;-37
2023/12/28 00:20:15;;;;;;;2.38;1.10;;;7.00;99.90;;;6.36;56.86;97321.56;4969661;28;20113;-37
2023/12/28 00:22:40;;;;;;;2.13;1.10;;;7.00;99.90;;;6.35;56.28;97330.28;4973135;28;20334;-37
2023/12/28 00:25:06;;;;;;;1.85;1.20;;;7.00;99.90;;;6.24;56.23;97315.66;4975589;28;20042;-36
2023/12/28 00:27:37;;;;;;;2.45;1.20;;;6.90;99.90;;;6.23;57.32;97328.81;4970684;28;20054;-36
2023/12/28 00:30:07;;;;;;;1.88;1.10;;;6.90;99.90;;;6.16;57.93;97330.69;4968796;28;20046;-37
2023/12/28 00:32:33;;;;;;;1.65;1.10;;;6.80;99.90;;;6.09;58.79;97334.31;4969428;28;20395;-37
2023/12/28 00:34:58;;;;;;;2.05;1.02;;;6.70;99.90;;;6.00;59.72;97339.75;4968690;28;20037;-36
2023/12/28 00:37:24;;;;;;;3.72;1.15;;;6.60;99.90;;;5.95;59.15;97338.94;4971988;28;20034;-37
2023/12/28 00:39:50;;;;;;;2.40;1.08;;;6.60;99.90;;;5.87;60.67;97342.56;4970432;28;20041;-37
2023/12/28 00:42:17;;;;;;;1.52;1.20;;;6.50;99.90;;;5.65;61.50;97317.69;4973357;28;20125;-36
2023/12/28 00:44:43;;;;;;;1.95;1.10;;;6.40;99.90;;;5.74;62.28;97348.91;4972056;28;20035;-37
2023/12/28 00:47:09;;;;;;;1.83;1.02;;;6.40;99.90;;;5.67;63.26;97349.91;4977146;28;20364;-36
2023/12/28 00:49:34;;;;;;;1.77;1.20;;;6.30;99.90;;;5.65;63.21;97346.47;4976204;28;20049;-36
2023/12/28 00:52:00;;;;;;;2.28;1.30;;;6.30;99.90;;;5.55;66.11;97340.53;4975037;28;20103;-36
2023/12/28 00:54:26;;;;;;;1.80;1.17;;;6.20;99.90;;;5.45;68.33;97331.97;4974620;28;20064;-37
2023/12/28 00:56:51;;;;;;;1.45;1.10;;;6.10;99.90;;;5.39;66.88;97326.88;4975301;28;20030;-37
2023/12/28 00:59:17;;;;;;;2.00;1.10;;;6.10;99.90;;;5.31;66.59;97323.50;4975052;28;20069;-37
2023/12/28 01:01:43;;;;;;;1.80;0.93;;;6.00;99.90;;;5.28;67.62;97327.06;4972829;28;20372;-36
2023/12/28 01:04:09;;;;;;;1.92;1.10;;;6.00;99.90;;;5.24;69.63;97334.97;4973556;28;20026;-36
2023/12/28 01:06:34;;;;;;;2.58;1.33;;;5.90;99.90;;;5.19;69.57;97331.56;4974963;28;20125;-37
2023/12/28 01:09:00;;;;;;;2.17;1.17;;;5.90;99.90;;;5.12;68.82;97338.66;4975254;28;20392;-36
2023/12/28 01:11:26;;;;;;;4.85;1.27;;;5.80;99.90;;;5.11;68.65;97345.63;4973573;28;20121;-36
2023/12/28 01:13:53;;;;;;;2.75;1.10;;;5.80;99.90;;;5.11;68.13;97350.84;4970888;28;20035;-37
2023/12/28 01:16:19;;;;;;;0.98;0.85;;;5.80;99.90;;;5.16;66.06;97356.88;4973352;28;20042;-36
2023/12/28 01:18:45;;;;;;;1.77;1.13;;;5.80;99.90;;;5.14;66.15;97353.41;4974276;28;20035;-37
2023/12/28 01:21:11;;;;;;;1.67;1.10;;;5.80;99.90;;;5.16;67.38;97366.47;4975043;28;20065;-37
2023/12/28 01:23:36;;;;;;;1.30;0.90;;;5.80;99.90;;;5.11;69.58;97352.59;4975388;28;20030;-37
2023/12/28 01:26:02;;;;;;;2.83;1.10;;;5.80;99.90;;;5.04;70.07;97341.38;4973865;28;20085;-37
2023/12/28 01:28:28;;;;;;;1.45;0.95;;;5.70;99.90;;;5.02;70.87;97355.38;4972657;28;20325;-37
2023/12/28 01:30:53;;;;;;;2.13;1.17;;;5.70;99.90;;;4.99;69.28;97351.06;4972026;28;20420;-37
2023/12/28 01:33:19;;;;;;;3.25;1.10;;;5.70;99.90;;;5.00;69.10;97350.16;4974269;28;20034;-37
2023/12/28 01:35:45;;;;;;;2.25;1.23;;;5.70;99.90;;;4.98;69.63;97344.09;4974573;28;20030;-37
2023/12/28 01:38:11;;;;;;;1.50;1.00;;;5.60;99.90;;;4.95;72.90;97350.25;4972119;28;20437;-36
2023/12/28 01:40:36;;;;;;;1.50;0.95;;;5.60;99.90;;;4.86;75.42;97352.97;4972563;28;20035;-36
2023/12/28 01:43:02;;;;;;;2.30;1.02;;;5.50;99.90;;;4.82;75.04;97360.91;4973681;28;20026;-36
2023/12/28 01:45:28;;;;;;;2.13;1.08;;;5.50;99.90;;;4.75;77.59;97371.41;4975390;28;20766;-36
2023/12/28 01:47:56;;;;;;;3.42;1.00;;;5.40;99.90;;;4.66;79.73;97381.16;4973725;28;20033;-36
2023/12/28 01:50:23;;;;;;;2.17;1.00;;;5.40;99.90;;;4.63;79.40;97376.84;4975529;28;20034;-36
2023/12/28 01:52:50;;;;;;;1.38;1.02;;;5.30;99.90;;;4.57;80.57;97379.53;4973117;28;20132;-36
2023/12/28 01:55:16;;;;;;;1.92;1.10;;;5.30;99.90;;;4.50;82.05;97378.72;4972246;28;20493;-36
2023/12/28 01:57:42;;;;;;;1.67;1.13;;;5.20;99.90;;;4.32;84.47;97360.69;4968588;28;20081;-36
2023/12/28 02:00:08;;;;;;;1.70;1.10;;;5.20;99.90;;;4.35;87.31;97364.13;4989214;28;20022;-36
2023/12/28 02:02:35;;;;;;;1.73;1.08;;;5.10;99.90;;;4.29;87.90;97374.66;4969817;28;20023;-37
2023/12/28 02:05:01;;;;;;;2.33;1.20;;;5.10;99.90;;;4.28;88.15;97379.91;4974195;28;20084;-36
2023/12/28 02:07:29;;;;;;;1.58;1.00;;;5.00;99.90;;;4.23;88.55;97385.16;4962502;28;20038;-36
2023/12/28 02:09:55;;;;;;;2.72;1.17;;;5.00;99.90;;;4.26;88.30;97397.34;4966875;28;20034;-36
2023/12/28 02:12:21;;;;;;;2.80;1.05;;;5.00;99.90;;;4.25;88.28;97404.28;4973452;28;20497;-37
2023/12/28 02:14:47;;;;;;;1.88;1.30;;;5.00;99.90;;;4.24;87.76;97397.34;4972006;28;20035;-37
2023/12/28 02:17:34;;;;;;;1.70;1.02;;;5.00;99.90;;;4.27;87.17;97399.94;4969512;28;20479;-37
2023/12/28 02:20:05;;;;;;;1.75;1.10;;;5.00;99.90;;;4.29;86.73;97402.50;4969986;28;20034;-37
2023/12/28 02:22:31;;;;;;;1.58;1.15;;;5.00;99.90;;;4.29;87.60;97403.38;4976111;28;20045;-37
2023/12/28 02:25:11;;;;;;;1.63;1.00;;;5.00;99.90;;;4.25;88.47;97393.00;4971619;28;20494;-37
2023/12/28 02:27:41;;;;;;;1.40;1.02;;;5.00;99.90;;;4.33;88.50;97391.16;4972014;28;20069;-37
2023/12/28 02:30:09;;;;;;;2.60;1.20;;;5.10;99.90;;;4.33;87.02;97388.56;4972825;28;20030;-37
2023/12/28 02:36:23;;;;;;;2.60;1.20;;;5.10;99.90;;;4.38;86.08;97400.66;4928653;28;20092;-37
2023/12/28 02:38:51;;;;;;;1.20;0.90;;;5.10;99.90;;;4.40;87.09;97398.03;4965027;28;20029;-37
2023/12/28 02:41:18;;;;;;;1.50;1.17;;;5.10;99.90;;;4.36;88.94;97385.88;4984283;28;20422;-37
2023/12/28 02:43:44;;;;;;;2.60;1.30;;;5.10;99.90;;;4.38;87.88;97391.97;4970256;28;20089;-37
2023/12/28 02:46:10;;;;;;;2.78;1.10;;;5.10;99.90;;;4.36;87.87;97392.00;4973378;28;20034;-37
2023/12/28 02:48:36;;;;;;;3.10;1.30;;;5.10;99.90;;;4.33;86.94;97386.78;4974510;28;20061;-37
2023/12/28 02:51:01;;;;;;;2.40;1.10;;;5.10;99.90;;;4.35;87.55;97389.38;4972075;28;20034;-37
2023/12/28 02:53:27;;;;;;;1.75;0.95;;;5.10;99.90;;;4.38;87.53;97391.97;4966056;28;20050;-37
2023/12/28 02:55:53;;;;;;;2.60;1.20;;;5.10;99.90;;;4.36;85.26;97384.16;4973664;28;20026;-37
2023/12/28 02:58:19;;;;;;;1.80;1.20;;;5.20;99.90;;;4.44;84.74;97381.44;4972759;28;20038;-37
2023/12/28 03:00:45;;;;;;;2.47;1.15;;;5.20;99.90;;;4.48;84.32;97388.34;4970412;28;20068;-37
2023/12/28 03:03:11;;;;;;;2.05;1.08;;;5.30;99.90;;;4.52;84.38;97397.00;4973606;28;20042;-37
2023/12/28 03:05:36;;;;;;;1.55;1.00;;;5.30;99.90;;;4.52;85.15;97384.81;4968683;28;20236;-37
2023/12/28 03:08:02;;;;;;;2.35;1.00;;;5.30;99.90;;;4.51;85.62;97393.53;4972020;28;20536;-37
2023/12/28 03:10:28;;;;;;;2.35;1.02;;;5.30;99.90;;;4.51;87.39;97393.53;4968062;28;20096;-36
2023/12/28 03:12:54;;;;;;;1.95;1.33;;;5.30;99.90;;;4.45;87.53;97374.47;4967698;28;20042;-37
2023/12/28 03:15:19;;;;;;;2.63;1.33;;;5.30;99.90;;;4.38;87.54;97364.09;4969303;28;20132;-37
2023/12/28 03:17:45;;;;;;;2.72;1.40;;;5.30;99.90;;;4.51;85.98;97371.78;4972139;28;20505;-37
2023/12/28 03:20:11;;;;;;;2.95;1.45;;;5.30;99.90;;;4.68;83.32;97389.81;4970839;28;20031;-37
2023/12/28 03:22:37;;;;;;;2.60;1.20;;;5.40;99.90;;;4.77;81.41;97394.91;4970605;28;20041;-37
2023/12/28 03:25:03;;;;;;;1.45;0.82;;;5.50;99.90;;;4.80;79.41;97373.13;4967417;28;20223;-37
2023/12/28 03:27:28;;;;;;;1.75;1.10;;;5.60;99.90;;;4.98;78.55;97399.00;4969376;28;20062;-37
2023/12/28 03:29:54;;;;;;;3.38;1.20;;;5.70;99.90;;;5.09;77.09;97397.06;4965111;28;20026;-37
2023/12/28 03:32:20;;;;;;;1.52;0.90;;;5.80;99.90;;;5.20;75.70;97398.66;4969386;28;20483;-37
2023/12/28 03:34:45;;;;;;;1.77;1.13;;;5.90;99.90;;;5.22;74.39;97399.50;4972064;28;23264;-37
2023/12/28 03:37:11;;;;;;;1.77;1.00;;;5.90;99.90;;;5.27;77.32;97385.47;4971502;28;20514;-37
2023/12/28 03:39:37;;;;;;;1.63;1.10;;;6.00;99.90;;;5.25;75.11;97391.63;4949649;28;20055;-37
2023/12/28 03:42:03;;;;;;;3.90;1.25;;;6.10;99.90;;;5.31;74.13;97386.28;4963492;28;20038;-37
2023/12/28 03:44:29;;;;;;;2.33;1.05;;;6.10;99.90;;;5.38;74.99;97382.66;4971490;28;20659;-37
2023/12/28 03:46:55;;;;;;;2.20;1.10;;;6.10;99.90;;;5.42;74.29;97383.47;4967582;28;20093;-37
2023/12/28 03:49:21;;;;;;;3.42;1.30;;;6.10;99.90;;;5.44;72.99;97372.13;4971212;28;20033;-37
2023/12/28 03:51:50;;;;;;;2.00;1.25;;;6.20;99.90;;;5.45;72.20;97371.22;4969730;28;20053;-37
2023/12/28 03:54:17;;;;;;;1.83;1.17;;;6.20;99.90;;;5.26;72.86;97341.91;4969493;28;20038;-37
2023/12/28 03:56:43;;;;;;;1.92;1.20;;;6.20;99.90;;;5.35;74.03;97362.69;4971100;28;20026;-37
2023/12/28 03:59:12;;;;;;;1.70;1.13;;;6.10;99.90;;;5.26;75.17;97357.59;4964840;28;20085;-37
2023/12/28 04:01:37;;;;;;;2.95;1.30;;;6.00;99.90;;;5.20;76.18;97364.66;4967397;28;20039;-37
2023/12/28 04:04:03;;;;;;;1.75;1.17;;;5.90;99.90;;;5.11;76.58;97342.16;4972349;28;20549;-37
2023/12/28 04:06:29;;;;;;;2.15;1.08;;;5.90;99.90;;;5.08;75.95;97352.66;4972151;28;20411;-37
2023/12/28 04:08:55;;;;;;;3.15;1.13;;;5.80;99.90;;;5.05;77.33;97355.34;4971584;28;20045;-37
2023/12/28 04:11:21;;;;;;;1.75;1.23;;;5.80;99.90;;;5.04;78.60;97356.19;4969873;28;20034;-37
2023/12/28 04:13:47;;;;;;;2.17;1.17;;;5.70;99.90;;;5.07;76.54;97367.47;4968289;28;20074;-37
2023/12/28 04:16:14;;;;;;;1.88;1.20;;;5.80;99.90;;;5.15;75.10;97364.72;4963477;28;20260;-37
2023/12/28 04:18:41;;;;;;;2.08;1.02;;;5.80;99.90;;;5.19;75.02;97365.53;4970419;28;20305;-37
2023/12/28 04:21:11;;;;;;;1.30;0.90;;;5.90;99.90;;;5.26;73.33;97362.84;4969992;28;21822;-38
2023/12/28 04:23:38;;;;;;;2.25;1.10;;;6.00;99.90;;;5.43;73.05;97377.38;4972166;28;20395;-35
2023/12/28 04:26:04;;;;;;;2.67;1.15;;;6.10;99.90;;;5.52;71.81;97371.97;4971539;28;20646;-35
2023/12/28 04:28:30;;;;;;;1.67;1.10;;;6.20;99.90;;;5.60;70.24;97364.00;4967463;28;20030;-35
2023/12/28 04:30:55;;;;;;;1.38;1.00;;;6.30;99.90;;;5.65;70.67;97359.53;4964578;28;20321;-35
2023/12/28 04:33:21;;;;;;;1.95;1.02;;;6.30;99.90;;;5.74;70.63;97359.38;4971538;28;20070;-36
2023/12/28 04:35:47;;;;;;;1.92;1.00;;;6.40;99.90;;;5.84;71.02;97349.63;4966642;28;20519;-35
2023/12/28 04:38:13;;;;;;;1.92;0.98;;;6.50;99.90;;;5.97;69.34;97355.50;4965930;28;20034;-35
2023/12/28 04:40:39;;;;;;;1.92;1.20;;;6.60;99.90;;;6.04;70.21;97346.63;4970644;28;20061;-36
2023/12/28 04:43:04;;;;;;;2.17;1.17;;;6.70;99.90;;;6.10;69.16;97349.13;4972698;28;20274;-35
2023/12/28 04:45:30;;;;;;;2.00;1.20;;;6.70;99.90;;;6.15;68.51;97354.28;4971792;28;20045;-36
2023/12/28 04:47:56;;;;;;;1.60;0.82;;;6.80;99.90;;;6.14;68.33;97336.81;4967790;28;20355;-36
2023/12/28 04:50:21;;;;;;;1.63;0.98;;;6.80;99.90;;;6.13;68.22;97341.22;4971070;28;20124;-35
2023/12/28 04:52:47;;;;;;;1.58;1.10;;;6.80;99.90;;;6.11;68.40;97340.38;4972256;28;20034;-36
2023/12/28 04:55:14;;;;;;;1.10;0.90;;;6.70;99.90;;;6.11;68.47;97338.63;4969248;28;20104;-35
2023/12/28 04:57:41;;;;;;;2.53;1.20;;;6.80;99.90;;;6.12;66.66;97329.03;4970992;28;20041;-35
2023/12/28 05:00:08;;;;;;;1.45;1.00;;;6.80;99.90;;;6.16;67.12;97340.31;4968025;28;20034;-35
2023/12/28 05:02:34;;;;;;;2.13;1.02;;;6.80;99.90;;;6.16;67.53;97346.41;4969916;28;20392;-36
2023/12/28 05:05:00;;;;;;;1.50;1.00;;;6.80;99.90;;;6.10;68.17;97349.13;4971228;28;20069;-35
2023/12/28 05:07:26;;;;;;;1.67;1.00;;;6.80;99.90;;;6.09;67.69;97356.13;4971440;28;20500;-35
2023/12/28 05:09:51;;;;;;;1.83;1.20;;;6.80;99.90;;;6.08;68.84;97356.16;4970113;28;20030;-35
2023/12/28 05:12:17;;;;;;;3.08;1.15;;;6.80;99.90;;;6.11;70.15;97353.47;4969803;28;20329;-35
2023/12/28 05:14:43;;;;;;;1.90;1.10;;;6.80;99.90;;;6.19;69.76;97351.59;4970601;28;20117;-36
2023/12/28 05:17:08;;;;;;;2.45;0.70;;;6.90;99.90;;;6.24;69.90;97354.94;4967770;28;20038;-36
2023/12/28 05:19:34;;;;;;;3.00;1.00;;;6.90;99.90;;;6.25;70.05;97343.59;4971274;28;20511;-36
2023/12/28 05:22:03;;;;;;;1.20;0.80;;;6.90;99.90;;;6.33;71.25;97346.03;4970298;28;20038;-36
2023/12/28 05:24:29;;;;;;;1.13;0.88;;;7.00;99.90;;;6.36;69.92;97351.22;4972444;28;20407;-35
2023/12/28 05:26:55;;;;;;;1.67;0.90;;;7.00;99.90;;;6.41;69.36;97356.38;4971392;28;20395;-35
2023/12/28 05:29:21;;;;;;;1.20;0.80;;;7.10;99.90;;;6.33;69.37;97339.94;4973364;28;20031;-35
2023/12/28 05:31:46;;;;;;;1.88;0.90;;;7.10;99.90;;;6.49;69.01;97343.97;4970873;28;20038;-36
2023/12/28 05:34:12;;;;;;;2.67;1.30;;;7.10;99.90;;;6.52;69.78;97354.38;4972413;28;20030;-35
2023/12/28 05:36:38;;;;;;;1.27;1.00;;;7.20;99.90;;;6.65;68.80;97370.69;4975476;28;20035;-36
2023/12/28 05:39:04;;;;;;;1.85;1.00;;;7.30;99.90;;;6.78;68.36;97377.38;4967660;28;20117;-36
2023/12/28 05:41:29;;;;;;;1.98;1.00;;;7.40;99.90;;;6.80;67.63;97377.34;4974516;28;20034;-35
2023/12/28 05:43:55;;;;;;;1.85;1.00;;;7.50;99.90;;;6.98;68.01;97382.19;4976718;28;20040;-35
2023/12/28 05:46:21;;;;;;;1.77;0.88;;;7.60;99.90;;;7.02;69.35;97380.38;4973313;28;20046;-36
2023/12/28 05:48:47;;;;;;;2.17;1.20;;;7.60;99.90;;;7.05;69.58;97388.16;4973313;28;20057;-36
2023/12/28 05:51:13;;;;;;;1.08;0.88;;;7.60;99.90;;;7.05;69.96;97386.41;4974728;28;20533;-35
2023/12/28 05:53:39;;;;;;;1.00;0.85;;;7.70;99.90;;;7.15;68.05;97399.31;4977608;28;20042;-36
2023/12/28 05:56:05;;;;;;;3.30;1.13;;;7.70;99.90;;;7.24;67.86;97396.47;4969474;28;20038;-36
2023/12/28 05:58:30;;;;;;;2.45;0.90;;;7.80;99.90;;;7.35;68.08;97401.44;4971775;28;20037;-37
2023/12/28 06:00:56;;;;;;;1.63;1.05;;;7.90;99.90;;;7.36;68.98;97398.78;4971046;28;20377;-36
2023/12/28 06:03:22;;;;;;;1.17;0.90;;;8.00;99.90;;;7.41;70.04;97402.16;4972341;28;20132;-36
2023/12/28 06:05:47;;;;;;;1.20;0.82;;;8.00;99.90;;;7.44;71.86;97404.69;4976645;28;20380;-35
2023/12/28 06:08:13;;;;;;;2.15;1.13;;;8.10;99.90;;;7.45;70.05;97400.34;4975648;28;20752;-35
2023/12/28 06:10:39;;;;;;;2.28;1.00;;;8.10;99.90;;;7.53;70.33;97397.50;4973250;28;20111;-35
2023/12/28 06:13:06;;;;;;;1.13;0.73;;;8.20;99.90;;;7.56;69.12;97410.56;4968144;28;20046;-36
2023/12/28 06:15:32;;;;;;;1.90;0.77;;;8.20;99.90;;;7.60;69.38;97417.47;4971215;28;20203;-36
2023/12/28 06:17:58;;;;;;;2.22;1.10;;;8.20;99.90;;;7.60;69.26;97420.94;4967285;28;20022;-36
2023/12/28 06:20:24;;;;;;;2.25;1.10;;;8.20;99.90;;;7.60;69.90;97417.47;4970452;28;20033;-36
2023/12/28 06:22:50;;;;;;;2.13;1.10;;;8.30;99.90;;;7.65;70.09;97431.34;4974372;28;20142;-36
2023/12/28 06:25:16;;;;;;;3.33;1.10;;;8.30;99.90;;;7.65;68.15;97419.06;4974203;28;20034;-36
2023/12/28 06:27:41;;;;;;;1.45;1.10;;;8.30;99.90;;;7.71;69.82;97422.44;4971812;28;20121;-36
2023/12/28 06:30:08;;;;;;;1.65;0.80;;;8.30;99.90;;;7.78;70.22;97424.84;4974219;28;20069;-36
2023/12/28 06:32:33;;;;;;;2.42;1.00;;;8.40;99.90;;;7.81;70.33;97418.69;4971300;28;20483;-36
2023/12/28 06:34:59;;;;;;;1.90;0.98;;;8.40;99.90;;;7.81;72.45;97406.41;4975668;28;20041;-36
2023/12/28 06:37:25;;;;;;;1.90;1.02;;;8.50;99.90;;;7.84;71.46;97403.72;4972987;28;20030;-36
2023/12/28 06:39:51;;;;;;;1.85;1.10;;;8.40;99.90;;;7.86;71.98;97402.81;4967993;28;20037;-36
2023/12/28 06:42:17;;;;;;;1.88;1.10;;;8.50;99.90;;;7.84;73.42;97410.72;4974273;28;20038;-36
2023/12/28 06:44:42;;;;;;;1.48;0.90;;;8.40;99.90;;;7.84;71.37;97415.97;4974231;28;20084;-36
2023/12/28 06:47:08;;;;;;;1.20;0.90;;;8.50;99.90;;;7.82;73.53;97420.41;4969912;28;20049;-36
2023/12/28 06:49:34;;;;;;;2.90;0.95;;;8.40;99.90;;;7.79;74.12;97423.13;4974046;28;20034;-36
2023/12/28 06:52:00;;;;;;;2.15;1.10;;;8.40;99.90;;;7.79;73.02;97433.63;4971027;28;20049;-36
2023/12/28 06:54:25;;;;;;;2.28;1.00;;;8.40;99.90;;;7.80;73.24;97427.44;4975293;28;20034;-36
2023/12/28 06:56:51;;;;;;;3.35;1.48;;;8.40;99.90;;;7.85;73.16;97422.94;4973249;28;20545;-36
2023/12/28 06:59:17;;;;;;;4.80;2.63;;;8.40;99.90;;;7.89;72.28;97432.47;4974320;28;20030;-36
2023/12/28 07:01:44;;;;;;;2.85;1.63;;;8.50;99.90;;;7.91;74.18;97428.03;4968727;28;20116;-36
2023/12/28 07:04:10;;;;;;;2.15;1.13;;;8.50;99.90;;;7.93;75.39;97428.00;4974578;28;20049;-36
2023/12/28 07:06:35;;;;;;;2.05;1.08;;;8.50;99.90;;;7.91;75.51;97428.03;4974444;28;20057;-36
2023/12/28 07:09:02;;;;;;;2.35;1.08;;;8.50;99.90;;;7.92;75.74;97434.16;4961168;28;20548;-36
2023/12/28 07:11:27;;;;;;;3.70;1.10;;;8.50;99.90;;;7.90;76.56;97435.97;4969002;28;20126;-36
2023/12/28 07:13:53;;;;;;;2.10;0.88;;;8.60;99.90;;;7.99;78.37;97439.22;4966418;28;20038;-36
2023/12/28 07:16:19;;;;;;;2.75;1.00;;;8.60;99.90;;;8.00;79.99;97438.31;4971668;28;20391;-36
2023/12/28 07:18:45;;;;;;;1.27;0.77;;;8.60;99.90;;;8.01;81.13;97447.06;4970079;28;20033;-36
2023/12/28 07:21:11;;;;;;;2.45;0.90;;;8.60;99.90;;;8.02;81.49;97444.41;4965273;28;20034;-36
2023/12/28 07:23:38;;;;;;;2.00;1.00;;;8.60;99.90;;;8.05;81.66;97450.47;4972762;28;20046;-36
2023/12/28 07:26:04;;;;;;;2.78;0.80;;;8.60;99.90;;;8.08;82.18;97453.03;4975497;28;20034;-37
2023/12/28 07:28:29;;;;;;;2.83;0.80;;;8.60;99.90;;;8.09;83.11;97445.06;4976433;28;20410;-37
2023/12/28 07:30:55;;;;;;;1.90;1.02;;;8.70;99.90;;;8.11;83.85;97453.81;4977747;28;20395;-37
2023/12/28 07:33:21;;;;;;;1.45;0.80;;;8.70;99.90;;;8.12;83.26;97457.28;4975695;28;20173;-37
2023/12/28 07:35:47;;;;;;;2.10;1.00;;;8.70;99.90;;;8.12;83.63;97455.50;4979751;28;20105;-37
2023/12/28 07:38:13;;;;;;;1.75;0.90;;;8.70;99.90;;;8.14;84.88;97453.69;4972523;28;20027;-37
2023/12/28 07:40:38;;;;;;;1.88;1.20;;;8.70;99.90;;;8.14;85.17;97458.09;4969533;28;20057;-37
2023/12/28 07:43:05;;;;;;;1.73;0.85;;;8.70;99.90;;;8.18;85.81;97459.72;4970026;28;22631;-37
2023/12/28 07:45:31;;;;;;;3.25;1.10;;;8.70;99.90;;;8.17;86.01;97458.88;4971676;28;20038;-37
2023/12/28 07:47:59;;;;;;;1.88;0.80;;;8.70;99.90;;;8.19;85.48;97464.09;4971096;28;20026;-37
2023/12/28 07:50:24;;;;;;;1.23;0.80;;;8.70;99.90;;;8.19;87.12;97466.72;4971662;28;20558;-37
2023/12/28 07:52:50;;;;;;;1.60;0.98;;;8.70;99.90;;;8.20;87.55;97478.94;4975123;28;20042;-37
2023/12/28 07:55:16;;;;;;;1.70;1.10;;;8.70;99.90;;;8.08;88.29;97453.03;4964178;28;20294;-37
2023/12/28 07:57:42;;;;;;;1.50;0.95;;;8.80;99.90;;;8.19;87.67;97472.84;4973858;28;20030;-37
2023/12/28 08:00:09;;;;;;;2.38;0.98;;;8.80;99.90;;;8.20;88.14;97466.69;4966780;28;20037;-37
2023/12/28 08:02:34;;;;;;;2.15;0.95;;;8.80;99.90;;;8.25;89.91;97477.06;4970137;28;20306;-37
2023/12/28 08:05:00;;;;;;;1.55;1.00;;;8.80;99.90;;;8.27;90.87;97480.50;4968536;28;20767;-37
2023/12/28 08:07:26;;;;;;;1.27;0.95;;;8.80;99.90;;;8.28;90.60;97477.00;4971174;28;20033;-35
2023/12/28 08:09:51;;;;;;;0.95;0.80;;;8.80;99.90;;;8.27;91.02;97475.25;4964125;28;20049;-35
2023/12/28 08:12:18;;;;;;;1.95;0.90;;;8.80;99.90;;;8.31;91.33;97482.16;4969131;28;20069;-35
2023/12/28 08:14:43;;;;;;;2.03;0.90;;;8.90;99.90;;;8.31;91.51;97481.28;4969395;28;20055;-36
2023/12/28 08:17:09;;;;;;;2.22;1.10;;;8.90;99.90;;;8.34;91.91;97482.06;4965960;28;20116;-36
2023/12/28 08:19:35;;;;;;;1.35;0.90;;;8.90;99.90;;;8.37;92.21;97483.78;4966394;28;20351;-36
2023/12/28 08:22:02;;;;;;;1.77;1.02;;;8.90;99.90;;;8.35;91.44;97472.44;4968022;28;20026;-36
2023/12/28 08:24:28;;;;;;;1.60;0.90;;;8.90;99.90;;;8.43;91.43;97475.75;4972008;28;20189;-36
2023/12/28 08:26:58;;;;;;;2.03;1.08;;;9.00;99.90;;;8.50;91.45;97486.97;4971294;28;20076;-35
2023/12/28 08:29:23;;;;;;;1.75;0.93;;;9.00;99.90;;;8.55;90.94;97477.19;4969764;28;21084;-36
2023/12/28 08:31:49;;;;;;;2.60;1.00;;;9.10;99.90;;;8.65;90.16;97472.53;4973381;28;20179;-36
2023/12/28 08:34:15;;;;;;;1.95;0.90;;;9.20;99.90;;;8.71;90.52;97481.09;4969976;28;20038;-35
2023/12/28 08:36:41;;;;;;;2.58;1.00;;;9.30;99.90;;;8.77;90.79;97482.69;4969471;28;20026;-36
2023/12/28 08:39:07;;;;;;;1.98;1.05;;;9.30;99.90;;;8.76;90.61;97478.34;4971809;28;20419;-36
2023/12/28 08:41:33;;;;;;;1.77;1.00;;;9.40;99.90;;;8.79;89.74;97481.75;4969545;28;20370;-36
2023/12/28 08:43:59;;;;;;;1.75;1.05;;;9.40;99.90;;;8.83;89.72;97493.06;4971554;28;20361;-36
2023/12/28 08:46:24;;;;;;;1.65;1.00;;;9.30;99.90;;;8.80;89.37;97482.63;4973311;28;20089;-36
2023/12/28 08:48:50;;;;;;;1.50;0.90;;;9.40;99.90;;;8.73;89.01;97475.81;4963764;28;20511;-36
2023/12/28 08:51:16;;;;;;;2.40;1.20;;;9.30;99.90;;;8.78;89.83;97480.03;4970405;28;20052;-35
2023/12/28 08:53:42;;;;;;;2.25;1.10;;;9.30;99.90;;;8.76;89.43;97484.47;4975076;28;20027;-35
2023/12/28 08:56:21;;;;;;;1.75;0.95;;;9.30;99.90;;;8.78;89.29;97481.81;4976408;28;20106;-36
2023/12/28 08:58:47;;;;;;;2.35;0.98;;;9.30;99.90;;;8.78;88.36;97472.13;4967391;28;20323;-36
2023/12/28 09:01:22;;;;;;;4.13;1.10;;;9.40;99.90;;;8.88;88.55;97466.59;4974746;28;20042;-36
2023/12/28 09:03:52;;;;;;;1.75;1.00;;;9.50;99.90;;;9.06;89.09;97467.84;4957645;28;20121;-36
2023/12/28 09:06:19;;;;;;;2.45;0.98;;;9.60;99.90;;;9.10;92.80;97477.38;4958691;28;20034;-36
2023/12/28 09:08:48;;;;;;;1.90;1.20;;;9.60;99.90;;;9.14;91.82;97479.00;4970084;28;20649;-37
2023/12/28 09:11:14;;;;;;;1.38;0.90;;;9.70;99.90;;;9.15;91.89;97480.72;4972958;28;20057;-37
2023/12/28 09:13:41;;;;;;;2.40;1.00;;;9.70;99.90;;;9.17;92.20;97468.41;4967495;28;20054;-37
2023/12/28 09:16:10;;;;;;;2.00;1.15;;;9.70;99.90;;;9.22;93.48;97470.88;4971520;28;20521;-37
2023/12/28 09:18:37;;;;;;;1.85;1.00;;;9.80;99.90;;;9.23;94.07;97472.59;4970489;28;20038;-37
2023/12/28 09:21:04;;;;;;;1.67;0.90;;;9.80;99.90;;;9.26;96.22;97475.13;4969252;28;20037;-37
2023/12/28 09:23:32;;;;;;;1.58;0.90;;;9.80;99.90;;;9.18;97.54;97464.84;4967058;28;20045;-37
2023/12/28 09:25:59;;;;;;;1.33;0.95;;;9.80;99.90;;;9.28;100.00;97484.72;4963621;28;20376;-37
2023/12/28 09:28:26;;;;;;;2.80;0.93;;;9.80;99.90;;;9.22;100.00;97468.22;4966906;28;20615;-37
2023/12/28 09:30:51;;;;;;;1.58;0.80;;;9.80;99.90;;;9.38;100.00;97487.06;4967818;28;20625;-38
2023/12/28 09:33:17;;;;;;;1.05;0.75;;;9.90;99.90;;;9.46;100.00;97490.31;4964012;28;20049;-37
2023/12/28 09:35:43;;;;;;;2.05;0.80;;;10.00;99.90;;;9.58;100.00;97499.59;4972826;28;20081;-38
2023/12/28 09:38:08;;;;;;;1.88;1.10;;;10.10;99.90;;;9.69;100.00;97493.09;4971403;28;20125;-38
2023/12/28 09:40:38;;;;;;;1.60;0.77;;;10.20;99.90;;;9.81;100.00;97490.97;4965438;28;20034;-38
2023/12/28 09:43:09;;;;;;;1.27;0.88;;;10.30;99.90;;;9.90;100.00;97495.94;4955676;28;20030;-37
2023/12/28 09:45:35;;;;;;;2.13;1.00;;;10.40;99.90;;;9.98;100.00;97498.31;4965539;28;20026;-36
2023/12/28 09:48:02;;;;;;;1.50;1.00;;;10.50;99.90;;;10.06;100.00;97506.84;4970705;28;20034;-37
2023/12/28 09:50:28;;;;;;;1.88;0.95;;;10.60;99.90;;;10.12;100.00;97494.31;4973319;28;20503;-37
2023/12/28 09:52:54;;;;;;;1.95;0.90;;;10.60;99.90;;;10.17;100.00;97509.09;4974856;28;20240;-37
2023/12/28 09:55:20;;;;;;;2.25;0.90;;;10.70;99.90;;;10.18;100.00;97516.13;4971690;28;20707;-37
2023/12/28 09:57:46;;;;;;;4.15;1.27;;;10.70;99.90;;;10.16;100.00;97499.47;4971786;28;20034;-38
2023/12/28 10:00:12;;;;;;;3.08;0.93;;;10.70;99.90;;;10.13;100.00;97492.53;4969887;28;20784;-36
2023/12/28 10:02:41;;;;;;;3.17;1.17;;;10.60;99.90;;;10.11;97.39;97499.63;4953122;28;20042;-36
2023/12/28 10:05:07;;;;;;;4.20;1.10;;;10.60;99.90;;;10.13;98.87;97498.66;4979289;28;20479;-37
2023/12/28 10:07:42;;;;;;;2.95;1.20;;;10.60;99.90;;;10.11;97.87;97505.75;4964561;28;20053;-36
2023/12/28 10:10:09;;;;;;;1.85;1.08;;;10.60;99.90;;;10.07;97.27;97504.16;4964631;28;20041;-36
2023/12/28 10:12:35;;;;;;;2.03;1.13;;;10.60;99.90;;;9.96;96.82;97493.13;4968498;28;20072;-36
2023/12/28 10:15:01;;;;;;;2.30;0.98;;;10.60;99.90;;;10.00;96.13;97496.50;4963350;28;20660;-37
2023/12/28 10:17:27;;;;;;;3.70;1.08;;;10.50;99.90;;;9.98;95.27;97501.81;4955012;28;20081;-36
2023/12/28 10:19:54;;;;;;;5.07;1.23;;;10.50;99.90;;;10.01;95.65;97504.34;4972097;28;20034;-37
2023/12/28 10:22:20;;;;;;;2.17;1.20;;;10.50;99.90;;;9.99;93.92;97506.16;4971690;28;20098;-36
2023/12/28 10:24:46;;;;;;;2.17;1.08;;;10.50;99.90;;;10.00;95.02;97505.25;4972019;28;20132;-37
2023/12/28 10:27:14;;;;;;;3.72;1.20;;;10.50;99.90;;;10.00;95.39;97507.91;4973880;28;20042;-37
2023/12/28 10:29:39;;;;;;;1.33;0.73;;;10.50;99.90;;;10.01;94.38;97503.47;4969696;28;20038;-37